createdAt,value
2022-10-16T00:00:14.283Z,100.00
2022-10-16T00:01:14.097Z,100.00
2022-10-16T00:02:10.818Z,100.00
2022-10-16T00:03:08.430Z,100.00
2022-10-16T00:04:05.361Z,100.00
2022-10-16T00:05:02.036Z,100.00
2022-10-16T00:06:01.777Z,100.00
2022-10-16T00:06:58.484Z,100.00
2022-10-16T00:07:55.265Z,100.00
2022-10-16T00:08:52.887Z,100.00
2022-10-16T00:09:49.695Z,100.00
2022-10-16T00:10:46.377Z,100.00
2022-10-16T00:11:43.307Z,100.00
2022-10-16T00:12:40.024Z,100.00
2022-10-16T00:13:38.651Z,100.00
2022-10-16T00:14:35.390Z,100.00
2022-10-16T00:15:37.221Z,100.00
2022-10-16T00:16:35.009Z,100.00
2022-10-16T00:17:31.819Z,100.00
2022-10-16T00:18:29.368Z,100.00
2022-10-16T00:19:26.034Z,100.00
2022-10-16T00:20:22.714Z,100.00
2022-10-16T00:21:22.771Z,100.00
2022-10-16T00:22:19.508Z,100.00
2022-10-16T00:23:16.558Z,100.00
2022-10-16T00:24:13.503Z,100.00
2022-10-16T00:25:10.517Z,100.00
2022-10-16T00:26:10.713Z,100.00
2022-10-16T00:27:07.405Z,100.00
2022-10-16T00:28:04.189Z,100.00
2022-10-16T00:29:00.976Z,100.00
2022-10-16T00:30:59.930Z,100.00
2022-10-16T00:31:56.669Z,100.00
2022-10-16T00:32:53.354Z,100.00
2022-10-16T00:33:50.801Z,100.00
2022-10-16T00:34:47.858Z,100.00
2022-10-16T00:35:44.755Z,100.00
2022-10-16T00:36:41.451Z,100.00
2022-10-16T00:37:38.188Z,100.00
2022-10-16T00:38:35.480Z,100.00
2022-10-16T00:39:32.142Z,100.00
2022-10-16T00:40:29.336Z,100.00
2022-10-16T00:41:26.707Z,100.00
2022-10-16T00:42:23.715Z,100.00
2022-10-16T00:43:41.141Z,100.00
2022-10-16T00:44:57.699Z,100.00
2022-10-16T00:45:54.474Z,100.00
2022-10-16T00:46:52.051Z,100.00
2022-10-16T00:47:52.478Z,100.00
2022-10-16T00:49:00.692Z,100.00
2022-10-16T00:50:14.989Z,100.00
2022-10-16T00:51:11.943Z,100.00
2022-10-16T00:52:09.105Z,100.00
2022-10-16T00:53:05.954Z,100.00
2022-10-16T00:54:07.417Z,100.00
2022-10-16T00:55:07.247Z,100.00
2022-10-16T00:56:04.923Z,100.00
2022-10-16T00:57:05.976Z,100.00
2022-10-16T00:58:02.700Z,100.00
2022-10-16T00:59:04.789Z,100.00
2022-10-16T01:00:03.611Z,100.00
2022-10-16T01:01:00.545Z,100.00
2022-10-16T01:01:59.330Z,100.00
2022-10-16T01:02:58.679Z,100.00
2022-10-16T01:03:55.357Z,100.00
2022-10-16T01:04:55.388Z,100.00
2022-10-16T01:06:16.008Z,100.00
2022-10-16T01:07:25.799Z,100.00
2022-10-16T01:08:36.298Z,100.00
2022-10-16T01:10:10.355Z,100.00
2022-10-16T01:11:25.727Z,100.00
2022-10-16T01:12:51.834Z,100.00
2022-10-16T01:13:55.986Z,100.00
2022-10-16T01:15:11.484Z,100.00
2022-10-16T01:16:10.925Z,100.00
2022-10-16T01:17:34.027Z,100.00
2022-10-16T01:18:42.742Z,100.00
2022-10-16T01:19:39.425Z,100.00
2022-10-16T01:21:11.661Z,100.00
2022-10-16T01:22:10.738Z,100.00
2022-10-16T01:23:37.305Z,100.00
2022-10-16T01:24:41.019Z,100.00
2022-10-16T01:25:43.666Z,100.00
2022-10-16T01:27:12.232Z,100.00
2022-10-16T01:28:14.218Z,100.00
2022-10-16T01:29:24.921Z,100.00
2022-10-16T01:30:30.106Z,100.00
2022-10-16T01:31:32.944Z,100.00
2022-10-16T01:32:42.967Z,100.00
2022-10-16T01:33:46.167Z,100.00
2022-10-16T01:34:51.930Z,100.00
2022-10-16T01:36:08.034Z,100.00
2022-10-16T01:37:15.524Z,100.00
2022-10-16T01:38:18.097Z,100.00
2022-10-16T01:39:21.250Z,100.00
2022-10-16T01:40:21.989Z,100.00
2022-10-16T01:41:39.988Z,100.00
2022-10-16T01:42:47.383Z,100.00
2022-10-16T01:43:54.199Z,100.00
2022-10-16T01:44:54.062Z,100.00
2022-10-16T01:45:51.030Z,100.00
2022-10-16T01:46:52.792Z,100.00
2022-10-16T01:47:52.658Z,100.00
2022-10-16T01:48:52.997Z,100.00
2022-10-16T01:49:52.422Z,100.00
2022-10-16T01:51:02.137Z,100.00
2022-10-16T01:52:04.198Z,100.00
2022-10-16T01:53:05.716Z,100.00
2022-10-16T01:54:05.218Z,100.00
2022-10-16T01:55:06.340Z,100.00
2022-10-16T01:56:09.590Z,100.00
2022-10-16T01:57:09.838Z,100.00
2022-10-16T01:58:10.070Z,100.00
2022-10-16T01:59:12.763Z,100.00
2022-10-16T02:00:14.750Z,100.00
2022-10-16T02:02:21.449Z,100.00
2022-10-16T02:03:20.915Z,100.00
2022-10-16T02:04:38.634Z,100.00
2022-10-16T02:05:39.889Z,100.00
2022-10-16T02:06:37.036Z,100.00
2022-10-16T02:07:33.852Z,100.00
2022-10-16T02:08:32.265Z,100.00
2022-10-16T02:09:31.598Z,100.00
2022-10-16T02:10:32.547Z,100.00
2022-10-16T02:11:29.771Z,100.00
2022-10-16T02:12:34.079Z,100.00
2022-10-16T02:13:49.515Z,100.00
2022-10-16T02:14:46.198Z,100.00
2022-10-16T02:15:43.050Z,100.00
2022-10-16T02:16:43.398Z,100.00
2022-10-16T02:17:40.205Z,100.00
2022-10-16T02:18:37.083Z,100.00
2022-10-16T02:19:33.816Z,100.00
2022-10-16T02:20:37.833Z,100.00
2022-10-16T02:21:50.739Z,100.00
2022-10-16T02:22:51.422Z,100.00
2022-10-16T02:24:18.822Z,100.00
2022-10-16T02:25:31.161Z,100.00
2022-10-16T02:26:43.864Z,100.00
2022-10-16T02:28:07.024Z,100.00
2022-10-16T02:29:11.977Z,100.00
2022-10-16T02:30:29.944Z,100.00
2022-10-16T02:31:35.151Z,100.00
2022-10-16T02:32:35.610Z,100.00
2022-10-16T02:33:34.971Z,100.00
2022-10-16T02:34:34.778Z,100.00
2022-10-16T02:35:33.465Z,100.00
2022-10-16T02:36:30.953Z,100.00
2022-10-16T02:37:29.636Z,100.00
2022-10-16T02:38:27.862Z,100.00
2022-10-16T02:39:27.365Z,100.00
2022-10-16T02:40:25.571Z,100.00
2022-10-16T02:41:24.750Z,100.00
2022-10-16T02:42:21.435Z,100.00
2022-10-16T02:43:18.678Z,100.00
2022-10-16T02:44:15.383Z,100.00
2022-10-16T02:45:12.547Z,100.00
2022-10-16T02:46:09.275Z,100.00
2022-10-16T02:47:06.098Z,100.00
2022-10-16T02:48:03.087Z,100.00
2022-10-16T02:48:59.757Z,100.00
2022-10-16T02:49:56.495Z,100.00
2022-10-16T02:50:53.190Z,100.00
2022-10-16T02:51:49.900Z,100.00
2022-10-16T02:52:46.702Z,100.00
2022-10-16T02:53:43.381Z,100.00
2022-10-16T02:54:40.070Z,100.00
2022-10-16T02:55:36.746Z,100.00
2022-10-16T02:56:33.485Z,100.00
2022-10-16T02:57:30.341Z,100.00
2022-10-16T02:58:27.052Z,100.00
2022-10-16T02:59:23.731Z,100.00
2022-10-16T03:00:20.613Z,100.00
2022-10-16T03:01:17.889Z,100.00
2022-10-16T03:02:14.773Z,100.00
2022-10-16T03:03:11.457Z,100.00
2022-10-16T03:04:08.160Z,100.00
2022-10-16T03:05:05.757Z,100.00
2022-10-16T03:06:03.804Z,100.00
2022-10-16T03:07:00.529Z,100.00
2022-10-16T03:07:57.203Z,100.00
2022-10-16T03:08:53.950Z,100.00
2022-10-16T03:09:50.653Z,100.00
2022-10-16T03:10:47.348Z,100.00
2022-10-16T03:11:44.025Z,100.00
2022-10-16T03:12:40.705Z,100.00
2022-10-16T03:13:37.606Z,100.00
2022-10-16T03:14:35.150Z,100.00
2022-10-16T03:15:31.980Z,100.00
2022-10-16T03:16:28.746Z,100.00
2022-10-16T03:17:26.630Z,100.00
2022-10-16T03:18:23.734Z,100.00
2022-10-16T03:19:20.538Z,100.00
2022-10-16T03:20:17.284Z,100.00
2022-10-16T03:21:13.960Z,100.00
2022-10-16T03:22:10.671Z,100.00
2022-10-16T03:23:09.134Z,100.00
2022-10-16T03:24:06.244Z,100.00
2022-10-16T03:25:03.172Z,100.00
2022-10-16T03:26:00.107Z,100.00
2022-10-16T03:26:56.816Z,100.00
2022-10-16T03:27:53.570Z,100.00
2022-10-16T03:28:50.306Z,100.00
2022-10-16T03:29:47.088Z,100.00
2022-10-16T03:30:45.160Z,100.00
2022-10-16T03:31:41.842Z,100.00
2022-10-16T03:32:38.540Z,100.00
2022-10-16T03:33:35.249Z,100.00
2022-10-16T03:34:31.953Z,100.00
2022-10-16T03:35:28.808Z,100.00
2022-10-16T03:36:25.520Z,100.00
2022-10-16T03:37:22.285Z,100.00
2022-10-16T03:38:18.950Z,100.00
2022-10-16T03:39:15.759Z,100.00
2022-10-16T03:40:12.685Z,100.00
2022-10-16T03:41:09.362Z,100.00
2022-10-16T03:42:06.154Z,100.00
2022-10-16T03:43:02.954Z,100.00
2022-10-16T03:43:59.710Z,100.00
2022-10-16T03:44:56.416Z,100.00
2022-10-16T03:45:53.106Z,100.00
2022-10-16T03:46:49.806Z,100.00
2022-10-16T03:47:46.513Z,100.00
2022-10-16T03:48:43.189Z,100.00
2022-10-16T03:49:39.902Z,100.00
2022-10-16T03:50:36.622Z,100.00
2022-10-16T03:51:33.358Z,100.00
2022-10-16T03:52:30.062Z,100.00
2022-10-16T03:53:26.781Z,100.00
2022-10-16T03:54:23.515Z,100.00
2022-10-16T03:55:20.198Z,100.00
2022-10-16T03:56:16.886Z,100.00
2022-10-16T03:57:13.586Z,100.00
2022-10-16T03:58:10.425Z,100.00
2022-10-16T03:59:07.114Z,100.00
2022-10-16T04:00:04.450Z,100.00
2022-10-16T04:01:01.202Z,100.00
2022-10-16T04:01:57.866Z,100.00
2022-10-16T04:02:54.714Z,100.00
2022-10-16T04:03:51.429Z,100.00
2022-10-16T04:04:48.106Z,100.00
2022-10-16T04:05:44.769Z,100.00
2022-10-16T04:06:41.514Z,100.00
2022-10-16T04:07:38.733Z,100.00
2022-10-16T04:08:37.523Z,100.00
2022-10-16T04:09:34.614Z,100.00
2022-10-16T04:10:31.311Z,100.00
2022-10-16T04:11:28.442Z,100.00
2022-10-16T04:12:25.361Z,100.00
2022-10-16T04:13:22.191Z,100.00
2022-10-16T04:14:18.898Z,100.00
2022-10-16T04:15:15.686Z,100.00
2022-10-16T04:16:12.454Z,100.00
2022-10-16T04:17:09.178Z,100.00
2022-10-16T04:18:06.934Z,100.00
2022-10-16T04:19:04.147Z,100.00
2022-10-16T04:20:00.837Z,100.00
2022-10-16T04:20:57.529Z,100.00
2022-10-16T04:21:54.225Z,100.00
2022-10-16T04:22:50.982Z,100.00
2022-10-16T04:23:47.659Z,100.00
2022-10-16T04:24:44.337Z,100.00
2022-10-16T04:25:42.163Z,100.00
2022-10-16T04:26:39.182Z,100.00
2022-10-16T04:27:35.924Z,100.00
2022-10-16T04:28:32.631Z,100.00
2022-10-16T04:29:29.355Z,100.00
2022-10-16T04:30:26.156Z,100.00
2022-10-16T04:31:23.380Z,100.00
2022-10-16T04:32:20.057Z,100.00
2022-10-16T04:33:16.828Z,100.00
2022-10-16T04:34:13.534Z,100.00
2022-10-16T04:35:10.226Z,100.00
2022-10-16T04:36:06.915Z,100.00
2022-10-16T04:37:03.635Z,100.00
2022-10-16T04:38:00.371Z,100.00
2022-10-16T04:38:57.125Z,100.00
2022-10-16T04:39:54.577Z,100.00
2022-10-16T04:40:51.490Z,100.00
2022-10-16T04:41:48.171Z,100.00
2022-10-16T04:42:44.982Z,100.00
2022-10-16T04:43:41.715Z,100.00
2022-10-16T04:44:38.390Z,100.00
2022-10-16T04:45:35.105Z,100.00
2022-10-16T04:46:31.810Z,100.00
2022-10-16T04:47:28.820Z,100.00
2022-10-16T04:48:25.712Z,100.00
2022-10-16T04:49:22.497Z,100.00
2022-10-16T04:50:19.186Z,100.00
2022-10-16T04:51:15.916Z,100.00
2022-10-16T04:52:12.610Z,100.00
2022-10-16T04:53:09.599Z,100.00
2022-10-16T04:54:06.310Z,100.00
2022-10-16T04:55:03.844Z,100.00
2022-10-16T04:56:00.537Z,100.00
2022-10-16T04:56:57.207Z,100.00
2022-10-16T04:57:53.898Z,100.00
2022-10-16T04:58:50.649Z,100.00
2022-10-16T04:59:47.373Z,100.00
2022-10-16T05:00:45.418Z,100.00
2022-10-16T05:01:42.293Z,100.00
2022-10-16T05:02:39.090Z,100.00
2022-10-16T05:03:35.905Z,100.00
2022-10-16T05:04:32.613Z,100.00
2022-10-16T05:05:29.301Z,100.00
2022-10-16T05:06:25.973Z,100.00
2022-10-16T05:07:22.758Z,100.00
2022-10-16T05:08:19.577Z,100.00
2022-10-16T05:09:16.271Z,100.00
2022-10-16T05:10:12.986Z,100.00
2022-10-16T05:11:09.641Z,100.00
2022-10-16T05:12:06.316Z,100.00
2022-10-16T05:13:03.010Z,100.00
2022-10-16T05:13:59.765Z,100.00
2022-10-16T05:14:59.630Z,100.00
2022-10-16T05:15:56.559Z,100.00
2022-10-16T05:16:53.335Z,100.00
2022-10-16T05:17:53.870Z,100.00
2022-10-16T05:18:53.212Z,100.00
2022-10-16T05:19:52.849Z,100.00
2022-10-16T05:20:49.562Z,100.00
2022-10-16T05:21:46.258Z,100.00
2022-10-16T05:22:42.910Z,100.00
2022-10-16T05:23:39.622Z,100.00
2022-10-16T05:24:36.310Z,100.00
2022-10-16T05:25:33.045Z,100.00
2022-10-16T05:26:29.738Z,100.00
2022-10-16T05:27:26.783Z,100.00
2022-10-16T05:28:23.825Z,100.00
2022-10-16T05:29:21.317Z,100.00
2022-10-16T05:30:18.536Z,100.00
2022-10-16T05:31:15.249Z,100.00
2022-10-16T05:32:12.034Z,100.00
2022-10-16T05:33:08.730Z,100.00
2022-10-16T05:34:05.613Z,100.00
2022-10-16T05:35:02.363Z,100.00
2022-10-16T05:36:04.076Z,100.00
2022-10-16T05:37:00.762Z,100.00
2022-10-16T05:37:57.437Z,100.00
2022-10-16T05:38:54.188Z,100.00
2022-10-16T05:39:50.873Z,100.00
2022-10-16T05:40:57.271Z,100.00
2022-10-16T05:41:54.094Z,100.00
2022-10-16T05:42:50.841Z,100.00
2022-10-16T05:43:47.565Z,100.00
2022-10-16T05:44:44.286Z,100.00
2022-10-16T05:45:40.980Z,100.00
2022-10-16T05:46:37.977Z,100.00
2022-10-16T05:47:34.657Z,100.00
2022-10-16T05:48:31.960Z,100.00
2022-10-16T05:49:28.840Z,100.00
2022-10-16T05:50:25.525Z,100.00
2022-10-16T05:51:22.384Z,100.00
2022-10-16T05:52:19.059Z,100.00
2022-10-16T05:53:15.729Z,100.00
2022-10-16T05:54:12.645Z,100.00
2022-10-16T05:55:09.717Z,100.00
2022-10-16T05:56:08.394Z,100.00
2022-10-16T05:57:06.756Z,100.00
2022-10-16T05:58:03.734Z,100.00
2022-10-16T05:59:00.566Z,100.00
2022-10-16T05:59:57.340Z,100.00
2022-10-16T06:00:58.976Z,100.00
2022-10-16T06:01:55.720Z,100.00
2022-10-16T06:02:52.433Z,100.00
2022-10-16T06:03:49.185Z,100.00
2022-10-16T06:04:45.903Z,100.00
2022-10-16T06:05:43.874Z,100.00
2022-10-16T06:06:40.554Z,100.00
2022-10-16T06:07:37.798Z,100.00
2022-10-16T06:08:34.469Z,100.00
2022-10-16T06:09:31.203Z,100.00
2022-10-16T06:10:27.891Z,100.00
2022-10-16T06:11:27.752Z,100.00
2022-10-16T06:12:24.499Z,100.00
2022-10-16T06:13:21.186Z,100.00
2022-10-16T06:14:17.878Z,100.00
2022-10-16T06:15:14.590Z,100.00
2022-10-16T06:16:11.811Z,100.00
2022-10-16T06:17:08.528Z,100.00
2022-10-16T06:18:05.304Z,100.00
2022-10-16T06:19:02.072Z,100.00
2022-10-16T06:19:58.802Z,100.00
2022-10-16T06:20:56.274Z,100.00
2022-10-16T06:21:53.035Z,100.00
2022-10-16T06:22:49.715Z,100.00
2022-10-16T06:23:49.689Z,100.00
2022-10-16T06:24:47.516Z,100.00
2022-10-16T06:25:44.268Z,100.00
2022-10-16T06:26:40.997Z,100.00
2022-10-16T06:27:41.289Z,100.00
2022-10-16T06:28:39.478Z,100.00
2022-10-16T06:29:36.220Z,100.00
2022-10-16T06:30:32.942Z,100.00
2022-10-16T06:31:32.111Z,100.00
2022-10-16T06:32:28.935Z,100.00
2022-10-16T06:33:25.639Z,100.00
2022-10-16T06:34:22.436Z,100.00
2022-10-16T06:35:19.144Z,100.00
2022-10-16T06:36:18.261Z,100.00
2022-10-16T06:37:14.986Z,100.00
2022-10-16T06:38:11.690Z,100.00
2022-10-16T06:39:08.665Z,100.00
2022-10-16T06:40:05.925Z,100.00
2022-10-16T06:41:02.609Z,100.00
2022-10-16T06:42:57.013Z,100.00
2022-10-16T06:43:53.820Z,100.00
2022-10-16T06:44:50.483Z,100.00
2022-10-16T06:45:55.858Z,100.00
2022-10-16T06:46:52.638Z,100.00
2022-10-16T06:47:49.447Z,100.00
2022-10-16T06:48:46.534Z,100.00
2022-10-16T06:49:43.203Z,100.00
2022-10-16T06:50:39.891Z,100.00
2022-10-16T06:51:40.497Z,100.00
2022-10-16T06:52:39.765Z,100.00
2022-10-16T06:54:01.125Z,100.00
2022-10-16T06:54:55.818Z,100.00
2022-10-16T06:55:52.557Z,100.00
2022-10-16T06:56:49.251Z,100.00
2022-10-16T06:57:48.773Z,100.00
2022-10-16T06:58:46.743Z,100.00
2022-10-16T06:59:46.852Z,100.00
2022-10-16T07:00:43.775Z,100.00
2022-10-16T07:01:40.868Z,100.00
2022-10-16T07:02:37.577Z,100.00
2022-10-16T07:03:37.859Z,100.00
2022-10-16T07:04:34.534Z,100.00
2022-10-16T07:05:31.232Z,100.00
2022-10-16T07:06:31.439Z,100.00
2022-10-16T07:07:28.195Z,100.00
2022-10-16T07:08:24.878Z,100.00
2022-10-16T07:09:21.619Z,100.00
2022-10-16T07:10:18.409Z,100.00
2022-10-16T07:11:18.356Z,100.00
2022-10-16T07:12:15.036Z,100.00
2022-10-16T07:13:14.755Z,100.00
2022-10-16T07:14:20.418Z,100.00
2022-10-16T07:15:17.119Z,100.00
2022-10-16T07:16:19.618Z,100.00
2022-10-16T07:17:16.320Z,100.00
2022-10-16T07:18:13.049Z,100.00
2022-10-16T07:19:09.874Z,100.00
2022-10-16T07:20:07.242Z,100.00
2022-10-16T07:21:06.255Z,100.00
2022-10-16T07:22:04.073Z,100.00
2022-10-16T07:23:00.862Z,100.00
2022-10-16T07:24:00.431Z,100.00
2022-10-16T07:24:57.411Z,100.00
2022-10-16T07:25:57.087Z,100.00
2022-10-16T07:26:53.930Z,100.00
2022-10-16T07:27:50.808Z,100.00
2022-10-16T07:28:47.762Z,100.00
2022-10-16T07:29:44.589Z,100.00
2022-10-16T07:30:41.328Z,100.00
2022-10-16T07:31:38.926Z,100.00
2022-10-16T07:32:35.611Z,100.00
2022-10-16T07:33:33.091Z,100.00
2022-10-16T07:34:29.794Z,100.00
2022-10-16T07:35:26.487Z,100.00
2022-10-16T07:36:23.422Z,100.00
2022-10-16T07:37:20.211Z,100.00
2022-10-16T07:38:17.118Z,100.00
2022-10-16T07:39:13.855Z,100.00
2022-10-16T07:40:10.802Z,100.00
2022-10-16T07:41:10.180Z,100.00
2022-10-16T07:42:07.111Z,100.00
2022-10-16T07:43:06.341Z,100.00
2022-10-16T07:44:04.494Z,100.00
2022-10-16T07:45:01.195Z,100.00
2022-10-16T07:45:59.152Z,100.00
2022-10-16T07:46:58.719Z,100.00
2022-10-16T07:47:56.350Z,100.00
2022-10-16T07:48:53.462Z,100.00
2022-10-16T07:49:50.188Z,100.00
2022-10-16T07:50:46.934Z,100.00
2022-10-16T07:51:43.970Z,100.00
2022-10-16T07:52:40.727Z,100.00
2022-10-16T07:53:37.468Z,100.00
2022-10-16T07:54:34.222Z,100.00
2022-10-16T07:55:30.906Z,100.00
2022-10-16T07:56:27.634Z,100.00
2022-10-16T07:57:24.524Z,100.00
2022-10-16T07:58:21.670Z,100.00
2022-10-16T07:59:18.496Z,100.00
2022-10-16T08:00:15.342Z,100.00
2022-10-16T08:01:15.417Z,100.00
2022-10-16T08:02:12.146Z,100.00
2022-10-16T08:03:09.891Z,100.00
2022-10-16T08:04:07.011Z,100.00
2022-10-16T08:05:03.924Z,100.00
2022-10-16T08:06:01.803Z,100.00
2022-10-16T08:06:58.529Z,100.00
2022-10-16T08:07:55.269Z,100.00
2022-10-16T08:08:52.409Z,100.00
2022-10-16T08:09:52.697Z,100.00
2022-10-16T08:10:49.401Z,100.00
2022-10-16T08:11:46.180Z,100.00
2022-10-16T08:12:42.890Z,100.00
2022-10-16T08:13:39.615Z,100.00
2022-10-16T08:14:36.316Z,100.00
2022-10-16T08:15:33.061Z,100.00
2022-10-16T08:16:29.761Z,100.00
2022-10-16T08:17:26.719Z,100.00
2022-10-16T08:18:24.371Z,100.00
2022-10-16T08:19:21.075Z,100.00
2022-10-16T08:20:17.806Z,100.00
2022-10-16T08:21:21.572Z,100.00
2022-10-16T08:22:18.547Z,100.00
2022-10-16T08:23:15.430Z,100.00
2022-10-16T08:24:12.126Z,100.00
2022-10-16T08:25:09.129Z,100.00
2022-10-16T08:26:08.197Z,100.00
2022-10-16T08:27:05.014Z,100.00
2022-10-16T08:28:01.701Z,100.00
2022-10-16T08:28:58.560Z,100.00
2022-10-16T08:29:55.352Z,100.00
2022-10-16T08:30:52.185Z,100.00
2022-10-16T08:31:48.925Z,100.00
2022-10-16T08:32:45.845Z,100.00
2022-10-16T08:33:47.532Z,100.00
2022-10-16T08:34:44.271Z,100.00
2022-10-16T08:35:41.157Z,100.00
2022-10-16T08:36:38.858Z,100.00
2022-10-16T08:37:35.828Z,100.00
2022-10-16T08:38:33.124Z,100.00
2022-10-16T08:39:29.873Z,100.00
2022-10-16T08:40:32.224Z,100.00
2022-10-16T08:41:47.895Z,100.00
2022-10-16T08:43:31.639Z,100.00
2022-10-16T08:44:34.491Z,100.00
2022-10-16T08:45:46.076Z,100.00
2022-10-16T08:46:57.976Z,100.00
2022-10-16T08:48:01.444Z,100.00
2022-10-16T08:49:01.407Z,100.00
2022-10-16T08:50:02.885Z,100.00
2022-10-16T08:51:02.267Z,100.00
2022-10-16T08:51:59.603Z,100.00
2022-10-16T08:52:57.830Z,100.00
2022-10-16T08:54:23.978Z,100.00
2022-10-16T08:55:45.438Z,100.00
2022-10-16T08:56:42.176Z,100.00
2022-10-16T08:57:38.891Z,100.00
2022-10-16T08:58:35.608Z,99.44
2022-10-16T08:59:32.635Z,98.45
2022-10-16T09:00:31.047Z,98.62
2022-10-16T09:01:48.461Z,97.48
2022-10-16T09:02:56.328Z,96.83
2022-10-16T09:04:29.954Z,94.34
2022-10-16T09:05:29.400Z,91.61
2022-10-16T09:06:45.231Z,89.80
2022-10-16T09:08:15.628Z,89.00
2022-10-16T09:09:37.179Z,89.11
2022-10-16T09:10:39.918Z,90.12
2022-10-16T09:11:51.835Z,89.71
2022-10-16T09:13:09.823Z,90.57
2022-10-16T09:14:26.672Z,90.80
2022-10-16T09:15:23.467Z,90.99
2022-10-16T09:16:32.103Z,89.84
2022-10-16T09:17:53.018Z,89.14
2022-10-16T09:18:56.318Z,85.37
2022-10-16T09:19:58.684Z,85.55
2022-10-16T09:21:20.601Z,85.28
2022-10-16T09:22:19.241Z,83.86
2022-10-16T09:23:25.696Z,83.85
2022-10-16T09:24:29.353Z,80.06
2022-10-16T09:25:26.603Z,80.97
2022-10-16T09:27:21.505Z,79.29
2022-10-16T09:28:19.868Z,79.17
2022-10-16T09:29:21.026Z,77.79
2022-10-16T09:30:20.189Z,76.88
2022-10-16T09:31:20.706Z,78.14
2022-10-16T09:32:21.771Z,77.41
2022-10-16T09:33:23.193Z,76.49
2022-10-16T09:34:33.775Z,76.70
2022-10-16T09:35:40.805Z,77.94
2022-10-16T09:36:44.542Z,77.08
2022-10-16T09:37:45.585Z,75.45
2022-10-16T09:38:42.436Z,75.45
2022-10-16T09:39:47.303Z,76.11
2022-10-16T09:40:44.014Z,74.38
2022-10-16T09:41:44.968Z,74.60
2022-10-16T09:42:42.131Z,74.93
2022-10-16T09:43:50.703Z,75.21
2022-10-16T09:44:54.674Z,71.55
2022-10-16T09:46:07.677Z,73.02
2022-10-16T09:47:05.254Z,71.86
2022-10-16T09:48:11.203Z,70.79
2022-10-16T09:49:27.912Z,71.90
2022-10-16T09:50:29.593Z,73.07
2022-10-16T09:51:27.960Z,72.71
2022-10-16T09:52:25.259Z,72.85
2022-10-16T09:53:23.694Z,71.70
2022-10-16T09:54:22.499Z,70.84
2022-10-16T09:55:19.857Z,71.80
2022-10-16T09:56:26.910Z,71.64
2022-10-16T09:57:25.584Z,70.92
2022-10-16T09:58:26.882Z,71.96
2022-10-16T09:59:29.158Z,69.14
2022-10-16T10:00:26.563Z,69.15
2022-10-16T10:01:30.746Z,68.80
2022-10-16T10:02:39.206Z,68.16
2022-10-16T10:03:41.020Z,67.60
2022-10-16T10:04:50.285Z,67.98
2022-10-16T10:05:50.037Z,67.74
2022-10-16T10:06:51.407Z,68.89
2022-10-16T10:07:57.382Z,69.50
2022-10-16T10:09:05.992Z,68.70
2022-10-16T10:10:06.403Z,68.66
2022-10-16T10:11:03.269Z,68.72
2022-10-16T10:12:00.659Z,68.55
2022-10-16T10:12:58.266Z,68.31
2022-10-16T10:14:07.367Z,67.54
2022-10-16T10:15:20.789Z,67.93
2022-10-16T10:16:25.303Z,66.72
2022-10-16T10:17:31.482Z,66.25
2022-10-16T10:18:28.242Z,66.09
2022-10-16T10:19:28.000Z,65.94
2022-10-16T10:20:33.743Z,67.14
2022-10-16T10:21:33.606Z,66.86
2022-10-16T10:22:32.166Z,66.77
2022-10-16T10:23:33.687Z,66.93
2022-10-16T10:24:30.576Z,68.50
2022-10-16T10:25:47.468Z,67.76
2022-10-16T10:27:07.854Z,68.11
2022-10-16T10:28:22.738Z,67.38
2022-10-16T10:29:30.906Z,66.60
2022-10-16T10:30:31.363Z,66.78
2022-10-16T10:31:39.947Z,67.32
2022-10-16T10:32:57.151Z,66.69
2022-10-16T10:34:22.736Z,65.81
2022-10-16T10:35:28.395Z,65.28
2022-10-16T10:36:38.611Z,64.62
2022-10-16T10:37:50.595Z,63.52
2022-10-16T10:38:50.286Z,64.59
2022-10-16T10:40:02.388Z,64.87
2022-10-16T10:41:20.823Z,64.93
2022-10-16T10:42:24.879Z,65.70
2022-10-16T10:43:24.524Z,66.29
2022-10-16T10:44:46.104Z,66.26
2022-10-16T10:45:48.251Z,65.83
2022-10-16T10:46:56.808Z,65.87
2022-10-16T10:48:22.432Z,66.34
2022-10-16T10:49:33.985Z,66.03
2022-10-16T10:50:53.630Z,66.42
2022-10-16T10:52:18.401Z,65.26
2022-10-16T10:53:53.913Z,65.14
2022-10-16T10:55:03.500Z,64.06
2022-10-16T10:56:27.752Z,63.58
2022-10-16T10:58:52.564Z,64.56
2022-10-16T11:00:05.764Z,64.30
2022-10-16T11:01:07.884Z,64.70
2022-10-16T11:02:04.540Z,64.64
2022-10-16T11:03:13.417Z,64.54
2022-10-16T11:04:37.363Z,65.14
2022-10-16T11:06:16.195Z,64.56
2022-10-16T11:07:35.859Z,64.23
2022-10-16T11:08:49.340Z,64.56
2022-10-16T11:09:53.074Z,65.61
2022-10-16T11:11:04.920Z,65.39
2022-10-16T11:12:22.507Z,63.94
2022-10-16T11:13:44.364Z,63.48
2022-10-16T11:14:43.723Z,64.03
2022-10-16T11:15:44.696Z,63.49
2022-10-16T11:16:58.419Z,63.72
2022-10-16T11:18:04.141Z,63.62
2022-10-16T11:19:10.569Z,64.71
2022-10-16T11:20:20.861Z,64.88
2022-10-16T11:21:21.826Z,61.75
2022-10-16T11:22:24.316Z,62.03
2022-10-16T11:23:34.741Z,63.45
2022-10-16T11:24:43.920Z,63.55
2022-10-16T11:25:40.656Z,63.78
2022-10-16T11:26:44.808Z,64.23
2022-10-16T11:28:32.325Z,62.70
2022-10-16T11:29:34.393Z,60.54
2022-10-16T11:30:40.118Z,60.92
2022-10-16T11:31:45.757Z,58.84
2022-10-16T11:33:09.785Z,58.83
2022-10-16T11:34:37.643Z,58.29
2022-10-16T11:35:44.782Z,57.66
2022-10-16T11:36:53.943Z,57.27
2022-10-16T11:37:57.540Z,58.96
2022-10-16T11:39:18.148Z,59.40
2022-10-16T11:40:27.154Z,59.50
2022-10-16T11:41:43.623Z,59.71
2022-10-16T11:42:52.950Z,59.04
2022-10-16T11:44:23.457Z,59.36
2022-10-16T11:45:37.167Z,58.99
2022-10-16T11:46:58.290Z,59.45
2022-10-16T11:48:20.767Z,59.04
2022-10-16T11:49:25.151Z,56.80
2022-10-16T11:50:39.668Z,55.01
2022-10-16T11:51:49.723Z,55.61
2022-10-16T11:53:10.876Z,55.81
2022-10-16T11:54:36.618Z,56.77
2022-10-16T11:55:46.966Z,55.66
2022-10-16T11:56:48.720Z,55.75
2022-10-16T11:58:03.956Z,55.76
2022-10-16T11:59:34.527Z,55.82
2022-10-16T12:00:54.135Z,56.37
2022-10-16T12:02:18.558Z,56.38
2022-10-16T12:03:40.967Z,55.75
2022-10-16T12:05:00.619Z,56.76
2022-10-16T12:06:12.132Z,54.88
2022-10-16T12:07:15.907Z,54.38
2022-10-16T12:08:16.207Z,53.62
2022-10-16T12:09:28.909Z,52.09
2022-10-16T12:10:30.151Z,51.83
2022-10-16T12:11:29.901Z,50.72
2022-10-16T12:12:31.704Z,51.28
2022-10-16T12:13:40.026Z,52.17
2022-10-16T12:15:04.356Z,50.97
2022-10-16T12:16:12.733Z,50.24
2022-10-16T12:17:21.011Z,50.75
2022-10-16T12:18:25.852Z,51.88
2022-10-16T12:19:27.613Z,52.50
2022-10-16T12:20:28.823Z,53.04
2022-10-16T12:21:32.553Z,53.63
2022-10-16T12:22:32.978Z,53.25
2022-10-16T12:23:30.212Z,52.35
2022-10-16T12:24:43.239Z,52.54
2022-10-16T12:25:47.320Z,52.83
2022-10-16T12:26:47.595Z,52.70
2022-10-16T12:27:44.524Z,52.90
2022-10-16T12:28:41.898Z,53.36
2022-10-16T12:29:46.025Z,52.59
2022-10-16T12:30:53.088Z,52.50
2022-10-16T12:31:54.844Z,52.84
2022-10-16T12:33:07.823Z,52.85
2022-10-16T12:34:05.671Z,53.98
2022-10-16T12:35:05.966Z,54.06
2022-10-16T12:36:09.081Z,54.59
2022-10-16T12:37:15.761Z,54.53
2022-10-16T12:38:46.087Z,54.47
2022-10-16T12:39:43.420Z,55.22
2022-10-16T12:40:40.513Z,53.80
2022-10-16T12:41:41.018Z,51.90
2022-10-16T12:42:37.759Z,52.26
2022-10-16T12:43:43.190Z,51.49
2022-10-16T12:44:39.898Z,50.18
2022-10-16T12:45:36.717Z,50.99
2022-10-16T12:46:40.539Z,51.16
2022-10-16T12:47:48.365Z,51.10
2022-10-16T12:49:02.200Z,52.14
2022-10-16T12:50:07.252Z,52.89
2022-10-16T12:51:25.812Z,53.25
2022-10-16T12:52:29.464Z,52.70
2022-10-16T12:53:27.728Z,52.97
2022-10-16T12:54:39.725Z,53.12
2022-10-16T12:55:53.113Z,52.59
2022-10-16T12:57:24.131Z,52.10
2022-10-16T12:58:29.727Z,52.45
2022-10-16T12:59:46.001Z,52.84
2022-10-16T13:00:51.996Z,52.49
2022-10-16T13:02:15.017Z,52.37